Time;durP1;ratioP1;P1;durP2;ratioP2;P2;SDS_P1;SDS_P2;PMS_P1;PMS_P2;Temp;Humidity;BMP_temperature;BMP_pressure;BME280_temperature;BME280_humidity;BME280_pressure;Samples;Min_cycle;Max_cycle;Signal;HPM_P1;HPM_P2
2023/06/24 00:01:26;;;;;;;6.33;3.60;;;;;;;;;;6197073;23;20371;-90
2023/06/24 00:03:53;;;;;;;4.70;3.47;;;;;;;;;;6196184;23;20381;-91
2023/06/24 00:06:25;;;;;;;4.90;3.70;;;;;;;;;;6224526;23;20488;-90
2023/06/24 00:08:51;;;;;;;4.80;3.50;;;;;;;;;;6198700;23;20378;-90
2023/06/24 00:11:17;;;;;;;4.73;3.83;;;;;;;;;;6197771;23;20374;-91
2023/06/24 00:13:45;;;;;;;7.30;4.00;;;;;;;;;;6195826;23;20401;-90
2023/06/24 00:16:11;;;;;;;5.57;4.10;;;;;;;;;;6197431;23;20385;-90
2023/06/24 00:18:40;;;;;;;5.10;3.97;;;;;;;;;;6196519;23;20382;-90
2023/06/24 00:21:06;;;;;;;4.57;3.57;;;;;;;;;;6197868;23;20391;-90
2023/06/24 00:23:35;;;;;;;4.70;3.20;;;;;;;;;;6196764;23;20756;-90
2023/06/24 00:26:01;;;;;;;5.00;3.70;;;;;;;;;;6198751;23;20417;-90
2023/06/24 00:28:27;;;;;;;5.67;4.10;;;;;;;;;;6199561;23;20462;-90
2023/06/24 00:30:53;;;;;;;5.73;3.90;;;;;;;;;;6198108;23;20375;-90
2023/06/24 00:33:20;;;;;;;4.50;3.90;;;;;;;;;;6197264;23;20465;-90
2023/06/24 00:35:46;;;;;;;4.67;3.80;;;;;;;;;;6197675;23;20382;-90
2023/06/24 00:38:12;;;;;;;6.30;4.20;;;;;;;;;;6200637;23;20409;-90
2023/06/24 00:40:38;;;;;;;5.50;3.97;;;;;;;;;;6199042;23;20366;-91
2023/06/24 00:43:05;;;;;;;6.13;4.50;;;;;;;;;;6202425;23;20418;-90
2023/06/24 00:45:31;;;;;;;5.50;4.20;;;;;;;;;;6199540;23;20448;-90
2023/06/24 00:47:58;;;;;;;6.90;4.50;;;;;;;;;;6209349;23;20390;-90
2023/06/24 00:50:24;;;;;;;4.53;4.00;;;;;;;;;;6224461;23;20366;-90
2023/06/24 00:52:50;;;;;;;7.10;4.80;;;;;;;;;;6224383;23;20386;-90
2023/06/24 00:55:16;;;;;;;5.10;3.90;;;;;;;;;;6224144;23;20382;-91
2023/06/24 00:57:43;;;;;;;4.70;4.00;;;;;;;;;;6223772;23;20386;-89
2023/06/24 01:00:15;;;;;;;5.33;4.10;;;;;;;;;;6223943;23;20381;-90
2023/06/24 01:02:42;;;;;;;5.87;4.57;;;;;;;;;;6225808;23;20378;-90
2023/06/24 01:05:08;;;;;;;5.13;3.93;;;;;;;;;;6224302;23;20425;-90
2023/06/24 01:07:35;;;;;;;4.80;4.20;;;;;;;;;;6225813;23;20386;-90
2023/06/24 01:10:01;;;;;;;6.00;4.50;;;;;;;;;;6224463;23;20389;-90
2023/06/24 01:12:27;;;;;;;5.03;4.00;;;;;;;;;;6224751;23;20450;-90
2023/06/24 01:14:53;;;;;;;6.60;4.37;;;;;;;;;;6247377;23;20785;-90
2023/06/24 01:17:33;;;;;;;4.60;4.00;;;;;;;;;;6222516;23;20386;-90
2023/06/24 01:20:09;;;;;;;4.80;4.13;;;;;;;;;;6222463;23;20377;-91
2023/06/24 01:22:48;;;;;;;4.27;3.33;;;;;;;;;;6249634;23;20393;-91
2023/06/24 01:25:23;;;;;;;4.23;3.83;;;;;;;;;;6249310;23;20445;-91
2023/06/24 01:27:54;;;;;;;6.77;4.27;;;;;;;;;;6248918;23;20369;-91
2023/06/24 01:30:23;;;;;;;6.93;4.07;;;;;;;;;;6223118;23;20378;-90
2023/06/24 01:32:51;;;;;;;6.83;4.30;;;;;;;;;;6249744;23;20371;-91
2023/06/24 01:35:20;;;;;;;6.67;4.47;;;;;;;;;;6221629;23;20417;-90
2023/06/24 01:37:47;;;;;;;5.43;4.03;;;;;;;;;;6224370;23;20761;-89
2023/06/24 01:40:22;;;;;;;5.30;4.00;;;;;;;;;;6221943;23;20397;-90
2023/06/24 01:42:48;;;;;;;7.37;5.23;;;;;;;;;;6249421;23;20406;-90
2023/06/24 01:45:15;;;;;;;5.67;4.23;;;;;;;;;;6223002;23;20414;-90
2023/06/24 01:47:41;;;;;;;5.10;4.10;;;;;;;;;;6222805;23;20382;-90
2023/06/24 01:50:08;;;;;;;5.77;4.60;;;;;;;;;;6222204;23;20375;-91
2023/06/24 01:52:37;;;;;;;5.00;3.80;;;;;;;;;;6224809;23;20382;-91
2023/06/24 01:55:03;;;;;;;5.17;4.47;;;;;;;;;;6248096;23;20465;-91
2023/06/24 01:57:29;;;;;;;6.50;4.40;;;;;;;;;;6259729;22;20370;-91
2023/06/24 01:59:55;;;;;;;5.10;3.60;;;;;;;;;;6224029;23;20645;-91
2023/06/24 02:02:21;;;;;;;5.37;4.37;;;;;;;;;;6223611;23;20382;-90
2023/06/24 02:04:48;;;;;;;5.40;3.90;;;;;;;;;;6225275;23;21032;-91
2023/06/24 02:07:15;;;;;;;6.97;3.87;;;;;;;;;;6225257;23;21043;-90
2023/06/24 02:09:43;;;;;;;5.77;4.30;;;;;;;;;;6227017;23;20374;-91
2023/06/24 02:12:09;;;;;;;5.10;4.23;;;;;;;;;;6224779;23;20828;-90
2023/06/24 02:14:36;;;;;;;5.07;4.03;;;;;;;;;;6223107;23;20402;-90
2023/06/24 02:17:02;;;;;;;5.53;4.33;;;;;;;;;;6222947;23;20382;-90
2023/06/24 02:19:30;;;;;;;6.00;5.40;;;;;;;;;;6246724;23;20374;-90
2023/06/24 02:21:56;;;;;;;4.80;3.90;;;;;;;;;;6224042;23;20764;-91
2023/06/24 02:24:22;;;;;;;7.23;5.10;;;;;;;;;;6223530;23;20877;-91
2023/06/24 02:26:48;;;;;;;8.00;4.53;;;;;;;;;;6223538;23;20374;-90
2023/06/24 02:29:14;;;;;;;7.97;5.23;;;;;;;;;;6224799;23;21075;-90
2023/06/24 02:31:40;;;;;;;7.87;4.40;;;;;;;;;;6223013;23;20446;-91
2023/06/24 02:34:06;;;;;;;6.50;4.70;;;;;;;;;;6223856;23;20378;-90
2023/06/24 02:36:32;;;;;;;6.60;4.97;;;;;;;;;;6223903;23;20385;-90
2023/06/24 02:38:58;;;;;;;5.40;4.90;;;;;;;;;;6225556;23;20378;-91
2023/06/24 02:41:24;;;;;;;6.57;4.97;;;;;;;;;;6222821;23;20414;-91
2023/06/24 02:43:51;;;;;;;5.70;4.97;;;;;;;;;;6223184;23;20893;-91
2023/06/24 02:46:17;;;;;;;6.27;4.83;;;;;;;;;;6222926;23;20963;-91
2023/06/24 02:48:43;;;;;;;5.07;4.57;;;;;;;;;;6222734;23;20926;-91
2023/06/24 02:51:10;;;;;;;5.80;5.23;;;;;;;;;;6222949;23;20385;-90
2023/06/24 02:53:36;;;;;;;6.93;5.50;;;;;;;;;;6224720;23;20416;-90
2023/06/24 02:56:03;;;;;;;5.80;4.63;;;;;;;;;;6223762;23;20382;-91
2023/06/24 02:58:31;;;;;;;7.67;5.47;;;;;;;;;;6222861;23;20387;-90
2023/06/24 03:00:58;;;;;;;9.80;5.00;;;;;;;;;;6222776;23;20393;-90
2023/06/24 03:03:24;;;;;;;6.93;5.27;;;;;;;;;;6222032;23;20529;-91
2023/06/24 03:05:51;;;;;;;6.37;4.60;;;;;;;;;;6222090;23;20422;-91
2023/06/24 03:08:17;;;;;;;7.40;4.70;;;;;;;;;;6226510;23;20382;-91
2023/06/24 03:10:43;;;;;;;6.10;5.43;;;;;;;;;;6225874;23;20406;-92
2023/06/24 03:13:09;;;;;;;10.10;5.03;;;;;;;;;;6227128;23;20374;-91
2023/06/24 03:15:35;;;;;;;6.70;5.00;;;;;;;;;;6227030;23;20378;-91
2023/06/24 03:18:01;;;;;;;6.90;4.20;;;;;;;;;;6252523;23;20367;-91
2023/06/24 03:20:27;;;;;;;7.80;4.50;;;;;;;;;;6226424;23;20411;-91
2023/06/24 03:22:54;;;;;;;7.63;5.30;;;;;;;;;;6226839;23;20542;-91
2023/06/24 03:25:20;;;;;;;6.20;4.60;;;;;;;;;;6224734;23;20425;-91
2023/06/24 03:27:46;;;;;;;9.83;4.90;;;;;;;;;;6225439;23;20379;-91
2023/06/24 03:30:14;;;;;;;6.77;4.77;;;;;;;;;;6224787;23;20374;-91
2023/06/24 03:32:40;;;;;;;6.67;4.63;;;;;;;;;;6228323;23;20379;-91
2023/06/24 03:35:07;;;;;;;7.30;6.47;;;;;;;;;;6224596;23;20389;-91
2023/06/24 03:37:33;;;;;;;6.23;4.70;;;;;;;;;;6250802;23;20764;-91
2023/06/24 03:39:59;;;;;;;7.73;4.57;;;;;;;;;;6222758;23;20382;-91
2023/06/24 03:42:25;;;;;;;6.23;4.73;;;;;;;;;;6224288;23;20397;-91
2023/06/24 03:44:50;;;;;;;9.97;4.60;;;;;;;;;;6224256;23;20437;-91
2023/06/24 03:47:17;;;;;;;6.27;4.70;;;;;;;;;;6226621;23;20375;-91
2023/06/24 03:49:44;;;;;;;7.00;5.00;;;;;;;;;;6222603;23;20382;-92
2023/06/24 03:52:11;;;;;;;5.87;4.20;;;;;;;;;;6223684;23;20457;-91
2023/06/24 03:54:38;;;;;;;5.97;4.97;;;;;;;;;;6224501;23;20378;-91
2023/06/24 03:57:05;;;;;;;8.00;5.43;;;;;;;;;;6226189;23;20428;-91
2023/06/24 03:59:31;;;;;;;6.00;4.83;;;;;;;;;;6226973;23;20401;-91
2023/06/24 04:01:57;;;;;;;6.93;5.20;;;;;;;;;;6226668;23;20378;-91
2023/06/24 04:04:23;;;;;;;6.77;5.07;;;;;;;;;;6226803;23;20481;-91
2023/06/24 04:06:49;;;;;;;6.80;5.73;;;;;;;;;;6226231;23;20358;-90
2023/06/24 04:09:15;;;;;;;6.07;5.27;;;;;;;;;;6226817;23;20400;-91
2023/06/24 04:11:41;;;;;;;6.13;5.33;;;;;;;;;;6225626;23;20865;-91
2023/06/24 04:14:09;;;;;;;6.70;5.03;;;;;;;;;;6225990;23;20374;-91
2023/06/24 04:16:35;;;;;;;6.70;5.17;;;;;;;;;;6226579;23;20366;-91
2023/06/24 04:19:01;;;;;;;5.43;4.50;;;;;;;;;;6228522;23;20397;-91
2023/06/24 04:21:27;;;;;;;7.13;4.40;;;;;;;;;;6226106;23;20382;-91
2023/06/24 04:23:53;;;;;;;6.10;5.00;;;;;;;;;;6254615;23;20355;-91
2023/06/24 04:26:19;;;;;;;6.93;4.87;;;;;;;;;;6228277;23;20426;-92
2023/06/24 04:28:45;;;;;;;10.20;5.30;;;;;;;;;;6226444;23;20917;-91
2023/06/24 04:31:11;;;;;;;7.13;4.83;;;;;;;;;;6226351;23;20382;-90
2023/06/24 04:33:37;;;;;;;6.90;5.30;;;;;;;;;;6226681;23;20393;-90
2023/06/24 04:36:03;;;;;;;7.00;4.87;;;;;;;;;;6226870;23;20459;-91
2023/06/24 04:38:29;;;;;;;6.00;4.50;;;;;;;;;;6229367;23;20401;-91
2023/06/24 04:40:57;;;;;;;7.03;4.87;;;;;;;;;;6226500;23;20398;-90
2023/06/24 04:43:23;;;;;;;5.53;4.07;;;;;;;;;;6226101;23;20396;-91
2023/06/24 04:45:49;;;;;;;4.70;3.90;;;;;;;;;;6225364;23;20426;-91
2023/06/24 04:48:15;;;;;;;6.80;4.70;;;;;;;;;;6226270;23;20413;-91
2023/06/24 04:50:41;;;;;;;7.60;4.67;;;;;;;;;;6225544;23;20378;-92
2023/06/24 04:53:07;;;;;;;4.90;4.10;;;;;;;;;;6226610;23;20477;-90
2023/06/24 04:55:33;;;;;;;5.90;4.83;;;;;;;;;;6227642;23;20376;-90
2023/06/24 04:57:59;;;;;;;5.43;4.67;;;;;;;;;;6226684;23;20386;-91
2023/06/24 05:00:25;;;;;;;6.40;4.97;;;;;;;;;;6225447;23;20378;-91
2023/06/24 05:02:51;;;;;;;5.17;4.67;;;;;;;;;;6223589;23;20389;-91
2023/06/24 05:05:17;;;;;;;5.47;4.97;;;;;;;;;;6224824;23;21067;-90
2023/06/24 05:07:43;;;;;;;5.23;4.50;;;;;;;;;;6223677;23;20404;-91
2023/06/24 05:10:09;;;;;;;5.90;4.63;;;;;;;;;;6226368;23;20653;-90
2023/06/24 05:12:35;;;;;;;8.70;4.90;;;;;;;;;;6225849;23;20394;-90
2023/06/24 05:15:02;;;;;;;5.83;5.33;;;;;;;;;;6225856;23;20741;-90
2023/06/24 05:17:28;;;;;;;6.57;5.50;;;;;;;;;;6226404;23;20925;-91
2023/06/24 05:19:54;;;;;;;5.60;4.73;;;;;;;;;;6226429;23;20378;-91
2023/06/24 05:22:20;;;;;;;6.43;4.80;;;;;;;;;;6226160;23;20932;-90
2023/06/24 05:24:46;;;;;;;6.30;5.00;;;;;;;;;;6230521;23;20430;-90
2023/06/24 05:27:12;;;;;;;6.10;4.63;;;;;;;;;;6226280;23;20374;-91
2023/06/24 05:29:38;;;;;;;5.90;5.30;;;;;;;;;;6228965;23;20394;-90
2023/06/24 05:32:04;;;;;;;5.53;4.63;;;;;;;;;;6224110;23;20897;-91
2023/06/24 05:34:31;;;;;;;6.97;5.07;;;;;;;;;;6226586;23;20363;-91
2023/06/24 05:36:57;;;;;;;8.93;4.90;;;;;;;;;;6225413;23;20402;-90
2023/06/24 05:39:22;;;;;;;6.07;5.03;;;;;;;;;;6224045;23;20366;-91
2023/06/24 05:41:48;;;;;;;6.57;4.80;;;;;;;;;;6223682;23;20379;-90
2023/06/24 05:44:15;;;;;;;7.03;5.20;;;;;;;;;;6228114;23;20840;-91
2023/06/24 05:46:41;;;;;;;5.63;4.80;;;;;;;;;;6224236;23;20425;-90
2023/06/24 05:49:07;;;;;;;5.63;4.57;;;;;;;;;;6170415;23;20418;-90
2023/06/24 05:51:33;;;;;;;6.00;5.27;;;;;;;;;;6217839;23;20367;-91
2023/06/24 05:53:59;;;;;;;5.30;4.67;;;;;;;;;;6198634;23;20454;-90
2023/06/24 05:56:25;;;;;;;5.67;4.20;;;;;;;;;;6194075;23;20386;-90
2023/06/24 05:58:51;;;;;;;5.40;4.87;;;;;;;;;;6193515;23;20391;-90
2023/06/24 06:01:17;;;;;;;5.50;4.20;;;;;;;;;;6194392;23;20878;-91
2023/06/24 06:03:43;;;;;;;5.37;4.87;;;;;;;;;;6194826;23;20378;-90
2023/06/24 06:06:09;;;;;;;4.93;4.33;;;;;;;;;;6197565;23;20426;-90
2023/06/24 06:08:35;;;;;;;6.40;4.67;;;;;;;;;;6195779;23;20493;-91
2023/06/24 06:11:04;;;;;;;5.13;4.63;;;;;;;;;;6195548;23;21161;-90
2023/06/24 06:13:30;;;;;;;6.17;5.30;;;;;;;;;;6195201;23;20422;-90
2023/06/24 06:15:56;;;;;;;6.10;4.10;;;;;;;;;;6199571;23;20403;-90
2023/06/24 06:18:23;;;;;;;5.27;4.77;;;;;;;;;;6222462;23;20343;-90
2023/06/24 06:20:48;;;;;;;7.20;4.60;;;;;;;;;;6195715;23;20422;-90
2023/06/24 06:23:15;;;;;;;4.80;4.30;;;;;;;;;;6194024;23;20391;-91
2023/06/24 06:25:41;;;;;;;4.63;4.00;;;;;;;;;;6200641;23;20426;-90
2023/06/24 06:28:07;;;;;;;5.20;4.70;;;;;;;;;;6193331;23;20383;-90
2023/06/24 06:30:33;;;;;;;6.50;5.47;;;;;;;;;;6193245;23;20375;-90
2023/06/24 06:32:59;;;;;;;5.17;3.93;;;;;;;;;;6195381;23;20379;-90
2023/06/24 06:35:25;;;;;;;7.60;5.33;;;;;;;;;;6191829;23;20383;-91
2023/06/24 06:37:52;;;;;;;6.60;4.30;;;;;;;;;;6192901;23;20430;-90
2023/06/24 06:40:21;;;;;;;5.77;4.20;;;;;;;;;;6196152;23;20383;-90
2023/06/24 06:42:47;;;;;;;5.20;4.70;;;;;;;;;;6194055;23;20387;-90
2023/06/24 06:45:13;;;;;;;4.60;4.07;;;;;;;;;;6195006;23;20430;-90
2023/06/24 06:47:39;;;;;;;5.23;4.70;;;;;;;;;;6206662;23;20399;-90
2023/06/24 06:50:06;;;;;;;5.60;4.30;;;;;;;;;;6222547;23;20770;-90
2023/06/24 06:52:34;;;;;;;4.40;3.67;;;;;;;;;;6221915;23;20397;-91
2023/06/24 06:55:04;;;;;;;4.47;3.87;;;;;;;;;;6228037;23;20378;-91
2023/06/24 06:57:30;;;;;;;7.03;3.70;;;;;;;;;;6250288;23;20417;-89
2023/06/24 06:59:57;;;;;;;5.23;3.70;;;;;;;;;;6222427;23;20382;-90
2023/06/24 07:02:23;;;;;;;5.40;3.90;;;;;;;;;;6246809;23;20382;-90
2023/06/24 07:04:51;;;;;;;5.23;3.80;;;;;;;;;;6224656;23;20425;-90
2023/06/24 07:07:17;;;;;;;5.60;3.90;;;;;;;;;;6218628;23;20374;-90
2023/06/24 07:09:49;;;;;;;4.83;3.03;;;;;;;;;;6220718;23;20386;-88
2023/06/24 07:12:20;;;;;;;5.60;4.00;;;;;;;;;;6223826;23;20392;-90
2023/06/24 07:14:46;;;;;;;4.37;3.97;;;;;;;;;;6225761;23;20420;-90
2023/06/24 07:17:15;;;;;;;3.93;3.00;;;;;;;;;;6220053;23;20378;-90
2023/06/24 07:19:41;;;;;;;7.77;4.13;;;;;;;;;;6221677;23;20506;-90
2023/06/24 07:22:07;;;;;;;4.23;3.43;;;;;;;;;;6221603;23;20363;-90
2023/06/24 07:24:33;;;;;;;4.63;4.17;;;;;;;;;;6223533;23;20378;-90
2023/06/24 07:26:59;;;;;;;4.77;3.60;;;;;;;;;;6222456;23;20457;-91
2023/06/24 07:29:26;;;;;;;6.27;4.30;;;;;;;;;;6220934;23;20402;-90
2023/06/24 07:31:55;;;;;;;5.10;4.10;;;;;;;;;;6222032;23;20402;-88
2023/06/24 07:34:21;;;;;;;5.83;4.43;;;;;;;;;;6218587;23;20416;-90
2023/06/24 07:36:47;;;;;;;5.90;3.47;;;;;;;;;;6222955;23;20382;-90
2023/06/24 07:39:13;;;;;;;4.43;3.43;;;;;;;;;;6219397;23;20386;-87
2023/06/24 07:41:40;;;;;;;5.70;4.50;;;;;;;;;;6221392;23;20402;-89
2023/06/24 07:44:06;;;;;;;4.63;3.33;;;;;;;;;;6219620;23;20374;-89
2023/06/24 07:46:32;;;;;;;4.10;3.43;;;;;;;;;;6220370;23;20805;-89
2023/06/24 07:48:58;;;;;;;6.20;4.00;;;;;;;;;;6216570;23;20785;-89
2023/06/24 07:51:24;;;;;;;5.00;4.27;;;;;;;;;;6220713;23;20431;-89
2023/06/24 07:53:50;;;;;;;4.03;3.63;;;;;;;;;;6219801;23;20398;-90
2023/06/24 07:56:19;;;;;;;4.30;3.90;;;;;;;;;;6223578;23;20386;-90
2023/06/24 07:58:45;;;;;;;4.87;4.10;;;;;;;;;;6221963;23;20390;-91
2023/06/24 08:01:11;;;;;;;5.00;4.13;;;;;;;;;;6224682;23;20390;-89
2023/06/24 08:03:37;;;;;;;5.23;4.40;;;;;;;;;;6222092;23;20402;-90
2023/06/24 08:06:03;;;;;;;5.00;3.70;;;;;;;;;;6223042;23;20428;-92
2023/06/24 08:08:29;;;;;;;5.70;4.20;;;;;;;;;;6221378;23;20366;-90
2023/06/24 08:10:55;;;;;;;4.63;4.23;;;;;;;;;;6224353;23;20419;-92
2023/06/24 08:13:21;;;;;;;4.97;4.30;;;;;;;;;;6225953;23;20475;-91
2023/06/24 08:15:47;;;;;;;5.97;4.60;;;;;;;;;;6221798;23;20608;-90
2023/06/24 08:18:13;;;;;;;5.30;4.40;;;;;;;;;;6222208;23;20385;-91
2023/06/24 08:20:39;;;;;;;5.00;4.20;;;;;;;;;;6227211;23;20414;-91
2023/06/24 08:23:06;;;;;;;4.90;4.40;;;;;;;;;;6246853;23;20393;-91
2023/06/24 08:25:32;;;;;;;5.63;4.37;;;;;;;;;;6222126;23;20432;-90
2023/06/24 08:27:58;;;;;;;5.80;3.97;;;;;;;;;;6221311;23;20388;-90
2023/06/24 08:30:24;;;;;;;5.30;3.70;;;;;;;;;;6226722;23;20400;-90
2023/06/24 08:32:50;;;;;;;5.40;3.83;;;;;;;;;;6223073;23;20606;-90
2023/06/24 08:35:16;;;;;;;5.13;4.20;;;;;;;;;;6224893;23;21063;-90
2023/06/24 08:37:43;;;;;;;6.70;3.90;;;;;;;;;;6223013;23;20382;-92
2023/06/24 08:40:09;;;;;;;5.03;3.57;;;;;;;;;;6224288;23;20385;-90
2023/06/24 08:42:39;;;;;;;4.30;3.90;;;;;;;;;;6221422;23;20850;-90
2023/06/24 08:45:05;;;;;;;5.40;4.10;;;;;;;;;;6222365;23;20501;-90
2023/06/24 08:47:31;;;;;;;4.60;4.10;;;;;;;;;;6222848;23;20402;-89
2023/06/24 08:50:09;;;;;;;6.17;4.50;;;;;;;;;;6221503;23;20390;-90
2023/06/24 08:52:36;;;;;;;5.43;3.90;;;;;;;;;;6223058;23;20381;-89
2023/06/24 08:55:02;;;;;;;4.20;3.47;;;;;;;;;;6224311;23;20390;-90
2023/06/24 08:57:28;;;;;;;4.50;3.60;;;;;;;;;;6225649;23;20417;-89
2023/06/24 08:59:54;;;;;;;5.40;4.40;;;;;;;;;;6227488;23;20365;-90
2023/06/24 09:02:24;;;;;;;4.53;3.77;;;;;;;;;;6225784;23;20477;-90
2023/06/24 09:04:56;;;;;;;4.20;3.80;;;;;;;;;;6225594;23;20396;-89
2023/06/24 09:07:32;;;;;;;8.60;4.03;;;;;;;;;;6254117;23;20354;-90
2023/06/24 09:09:58;;;;;;;4.70;3.60;;;;;;;;;;6223423;23;20379;-90
2023/06/24 09:12:25;;;;;;;5.53;4.33;;;;;;;;;;6223215;23;20405;-90
2023/06/24 09:14:51;;;;;;;5.07;3.70;;;;;;;;;;6222053;23;20473;-90
2023/06/24 09:17:17;;;;;;;4.40;3.67;;;;;;;;;;6226522;23;20378;-90
2023/06/24 09:19:43;;;;;;;4.47;3.53;;;;;;;;;;6246634;23;20432;-89
2023/06/24 09:22:17;;;;;;;5.23;4.17;;;;;;;;;;6222039;23;20374;-90
2023/06/24 09:24:46;;;;;;;5.60;3.90;;;;;;;;;;6226736;23;20383;-90
2023/06/24 09:27:13;;;;;;;4.50;3.90;;;;;;;;;;6227066;23;20385;-88
2023/06/24 09:29:40;;;;;;;4.80;4.30;;;;;;;;;;6227485;23;20379;-90
2023/06/24 09:32:07;;;;;;;6.87;4.00;;;;;;;;;;6224121;23;20382;-89
2023/06/24 09:34:33;;;;;;;5.10;3.63;;;;;;;;;;6249519;23;20398;-90
2023/06/24 09:36:59;;;;;;;4.80;3.93;;;;;;;;;;6252165;23;20377;-90
2023/06/24 09:39:29;;;;;;;5.27;4.13;;;;;;;;;;6226726;23;20385;-90
2023/06/24 09:41:56;;;;;;;5.97;3.60;;;;;;;;;;6249990;23;20382;-89
2023/06/24 09:44:22;;;;;;;5.80;4.00;;;;;;;;;;6225387;23;20389;-90
2023/06/24 09:46:48;;;;;;;4.40;4.00;;;;;;;;;;6222167;23;20984;-90
2023/06/24 09:49:14;;;;;;;4.73;4.33;;;;;;;;;;6200574;23;20509;-91
2023/06/24 09:51:43;;;;;;;6.00;4.27;;;;;;;;;;6200183;23;20370;-91
2023/06/24 09:54:09;;;;;;;7.57;4.03;;;;;;;;;;6203182;23;20385;-90
2023/06/24 09:56:38;;;;;;;4.33;3.50;;;;;;;;;;6199948;23;20477;-91
2023/06/24 09:59:05;;;;;;;4.50;3.80;;;;;;;;;;6202716;23;20366;-91
2023/06/24 10:01:32;;;;;;;12.00;3.80;;;;;;;;;;6201950;22;20405;-91
2023/06/24 10:03:58;;;;;;;5.60;3.60;;;;;;;;;;6200477;23;20400;-90
2023/06/24 10:06:24;;;;;;;4.00;3.50;;;;;;;;;;6197026;23;20446;-90
2023/06/24 10:08:50;;;;;;;4.60;3.73;;;;;;;;;;6135046;23;20393;-90
2023/06/24 10:11:16;;;;;;;4.70;3.33;;;;;;;;;;6135851;23;20400;-89
2023/06/24 10:13:42;;;;;;;7.10;3.30;;;;;;;;;;6169273;23;20442;-90
2023/06/24 10:16:08;;;;;;;4.70;3.77;;;;;;;;;;6143237;23;20388;-89
2023/06/24 10:18:38;;;;;;;5.90;4.63;;;;;;;;;;6143509;23;20388;-89
2023/06/24 10:21:05;;;;;;;3.20;2.77;;;;;;;;;;6140621;23;20409;-89
2023/06/24 10:23:43;;;;;;;5.50;3.73;;;;;;;;;;6143129;23;20385;-90
2023/06/24 10:26:10;;;;;;;5.23;3.67;;;;;;;;;;6135929;23;20483;-89
2023/06/24 10:29:08;;;;;;;4.90;3.97;;;;;;;;;;6135785;23;20929;-90
2023/06/24 10:31:43;;;;;;;5.50;3.97;;;;;;;;;;6116630;23;20901;-91
2023/06/24 10:34:35;;;;;;;5.60;3.40;;;;;;;;;;6129084;23;20388;-87
2023/06/24 10:37:20;;;;;;;4.30;2.77;;;;;;;;;;6118739;23;20380;-88
2023/06/24 10:39:48;;;;;;;3.50;2.50;;;;;;;;;;6180266;23;20403;-89
2023/06/24 10:42:24;;;;;;;5.70;3.30;;;;;;;;;;6221711;23;20382;-89
2023/06/24 10:44:50;;;;;;;5.23;3.43;;;;;;;;;;6225278;23;20380;-89
2023/06/24 10:47:16;;;;;;;4.73;3.60;;;;;;;;;;6199283;23;20804;-89
2023/06/24 10:49:42;;;;;;;4.70;3.73;;;;;;;;;;6225373;23;20412;-88
2023/06/24 10:52:11;;;;;;;5.10;3.20;;;;;;;;;;6223832;23;20381;-88
2023/06/24 10:54:38;;;;;;;4.70;3.50;;;;;;;;;;6223728;23;20468;-88
2023/06/24 10:57:07;;;;;;;5.60;3.67;;;;;;;;;;6225277;23;20473;-88
2023/06/24 10:59:36;;;;;;;7.00;3.50;;;;;;;;;;6227169;23;20382;-93
2023/06/24 11:02:02;;;;;;;4.23;3.20;;;;;;;;;;6231580;23;20390;-94
2023/06/24 11:04:29;;;;;;;3.90;3.27;;;;;;;;;;6229262;23;20396;-91
2023/06/24 11:06:59;;;;;;;3.53;3.00;;;;;;;;;;6229560;23;20434;-92
2023/06/24 11:09:25;;;;;;;4.37;3.73;;;;;;;;;;6232556;23;20378;-93
2023/06/24 11:11:51;;;;;;;4.57;3.40;;;;;;;;;;6230592;23;20476;-94
2023/06/24 11:14:17;;;;;;;4.83;2.93;;;;;;;;;;6229255;23;20393;-94
2023/06/24 11:16:43;;;;;;;3.80;3.20;;;;;;;;;;6251228;23;20372;-92
2023/06/24 11:19:09;;;;;;;5.70;3.50;;;;;;;;;;6224280;23;20468;-94
2023/06/24 11:21:35;;;;;;;4.00;2.93;;;;;;;;;;6231107;23;20370;-93
2023/06/24 11:24:05;;;;;;;3.87;3.17;;;;;;;;;;6228690;23;21118;-93
2023/06/24 11:26:31;;;;;;;3.97;2.93;;;;;;;;;;6229478;23;20433;-95
2023/06/24 11:28:57;;;;;;;7.20;3.43;;;;;;;;;;6228643;23;20469;-96
2023/06/24 11:31:26;;;;;;;4.40;3.30;;;;;;;;;;6229859;23;20495;-95
2023/06/24 11:33:53;;;;;;;4.30;2.90;;;;;;;;;;6227832;23;20386;-92
2023/06/24 11:36:19;;;;;;;4.50;2.87;;;;;;;;;;6227901;23;20378;-92
2023/06/24 11:38:49;;;;;;;3.63;2.43;;;;;;;;;;6230860;23;20374;-96
2023/06/24 11:41:15;;;;;;;3.07;2.47;;;;;;;;;;6228760;23;20367;-94
2023/06/24 11:44:07;;;;;;;5.20;2.60;;;;;;;;;;6233140;23;20378;-92
2023/06/24 11:46:35;;;;;;;4.10;3.13;;;;;;;;;;6252920;23;20460;-93
2023/06/24 11:49:08;;;;;;;8.90;8.10;;;;;;;;;;6231761;23;20393;-96
2023/06/24 11:51:38;;;;;;;7.07;4.20;;;;;;;;;;6226295;23;20426;-93
2023/06/24 11:54:05;;;;;;;3.77;3.37;;;;;;;;;;6228126;23;20461;-95
2023/06/24 11:56:50;;;;;;;4.03;3.27;;;;;;;;;;6228442;23;20402;-92
2023/06/24 11:59:17;;;;;;;4.83;3.50;;;;;;;;;;6231563;23;20386;-96
2023/06/24 12:01:46;;;;;;;5.80;3.70;;;;;;;;;;6253012;23;20500;-91
2023/06/24 12:04:13;;;;;;;3.93;3.40;;;;;;;;;;6231713;23;20390;-96
2023/06/24 12:06:43;;;;;;;3.50;2.83;;;;;;;;;;6255792;22;20487;-95
2023/06/24 12:09:09;;;;;;;4.90;3.40;;;;;;;;;;6232015;23;20397;-94
2023/06/24 12:11:36;;;;;;;4.53;3.73;;;;;;;;;;6229596;23;20382;-95
2023/06/24 12:14:02;;;;;;;4.20;3.67;;;;;;;;;;6230550;23;20402;-94
2023/06/24 12:16:28;;;;;;;4.40;3.70;;;;;;;;;;6259284;23;20379;-96
2023/06/24 12:18:54;;;;;;;3.63;3.23;;;;;;;;;;6231678;23;20390;-96
2023/06/24 12:21:20;;;;;;;3.83;3.43;;;;;;;;;;6231943;23;20398;-95
2023/06/24 12:23:46;;;;;;;4.17;3.20;;;;;;;;;;6229956;23;20394;-95
2023/06/24 12:26:12;;;;;;;4.10;3.23;;;;;;;;;;6200955;23;20419;-94
2023/06/24 12:28:38;;;;;;;4.70;3.70;;;;;;;;;;6174449;23;20401;-94
2023/06/24 12:31:04;;;;;;;4.63;3.30;;;;;;;;;;6174916;23;20410;-93
2023/06/24 12:33:31;;;;;;;4.80;4.00;;;;;;;;;;6175010;23;20375;-93
2023/06/24 12:35:57;;;;;;;4.33;3.20;;;;;;;;;;6204895;23;20757;-95
2023/06/24 12:38:23;;;;;;;4.60;3.17;;;;;;;;;;6174572;23;20363;-96
2023/06/24 12:40:49;;;;;;;7.93;4.00;;;;;;;;;;6143314;23;20400;-92
2023/06/24 12:43:15;;;;;;;3.60;3.13;;;;;;;;;;6113809;23;20423;-93
2023/06/24 12:45:45;;;;;;;3.90;3.50;;;;;;;;;;6119147;23;20476;-93
2023/06/24 12:48:11;;;;;;;3.60;3.30;;;;;;;;;;6113961;23;20474;-94
2023/06/24 12:50:37;;;;;;;5.10;3.67;;;;;;;;;;6116970;23;20393;-95
2023/06/24 12:53:03;;;;;;;6.17;3.70;;;;;;;;;;6115968;23;20413;-95
2023/06/24 12:55:29;;;;;;;3.70;3.03;;;;;;;;;;6117006;23;20364;-95
2023/06/24 12:57:55;;;;;;;5.53;3.47;;;;;;;;;;6166639;23;20430;-95
2023/06/24 13:00:22;;;;;;;3.80;3.20;;;;;;;;;;6199596;23;20552;-92
2023/06/24 13:02:48;;;;;;;4.57;3.23;;;;;;;;;;6200190;23;20389;-96
2023/06/24 13:05:15;;;;;;;3.07;2.57;;;;;;;;;;6203769;23;20431;-95
2023/06/24 13:07:41;;;;;;;4.20;3.60;;;;;;;;;;6204767;23;20382;-96
2023/06/24 13:10:07;;;;;;;3.57;2.60;;;;;;;;;;6202138;23;20379;-96
2023/06/24 13:12:34;;;;;;;5.00;3.57;;;;;;;;;;6204733;23;20402;-93
2023/06/24 13:15:09;;;;;;;4.50;3.10;;;;;;;;;;6168415;23;20389;-96
2023/06/24 13:17:35;;;;;;;4.10;3.20;;;;;;;;;;6163145;23;20386;-94
2023/06/24 13:20:22;;;;;;;3.93;3.50;;;;;;;;;;6181089;23;20410;-95
2023/06/24 13:23:03;;;;;;;4.10;3.53;;;;;;;;;;6210789;23;20414;-95
2023/06/24 13:25:31;;;;;;;5.20;3.30;;;;;;;;;;6230408;22;20426;-96
2023/06/24 13:27:57;;;;;;;3.20;2.90;;;;;;;;;;6205372;23;20402;-96
2023/06/24 13:30:23;;;;;;;3.80;3.40;;;;;;;;;;6203228;23;20494;-95
2023/06/24 13:32:50;;;;;;;3.63;3.13;;;;;;;;;;6203766;23;20387;-93
2023/06/24 13:35:16;;;;;;;3.97;3.57;;;;;;;;;;6200954;23;21213;-95
2023/06/24 13:37:43;;;;;;;3.67;3.10;;;;;;;;;;6205650;23;20749;-95
2023/06/24 13:40:09;;;;;;;5.27;3.50;;;;;;;;;;6204994;23;20383;-96
2023/06/24 13:42:38;;;;;;;3.50;2.80;;;;;;;;;;6207056;23;20375;-96
2023/06/24 13:45:12;;;;;;;5.00;3.73;;;;;;;;;;6211917;23;20435;-95
2023/06/24 13:47:47;;;;;;;4.50;3.50;;;;;;;;;;6241322;22;20410;-94
2023/06/24 13:50:13;;;;;;;4.57;3.80;;;;;;;;;;6263115;23;20374;-92
2023/06/24 13:52:39;;;;;;;5.30;4.20;;;;;;;;;;6233089;23;20394;-96
2023/06/24 13:55:08;;;;;;;5.10;4.10;;;;;;;;;;6235500;22;20368;-92
2023/06/24 13:57:34;;;;;;;7.00;3.60;;;;;;;;;;6230790;23;20888;-93
2023/06/24 14:00:00;;;;;;;4.50;4.10;;;;;;;;;;6230758;23;20465;-95
2023/06/24 14:02:26;;;;;;;4.87;3.50;;;;;;;;;;6234427;23;20397;-95
2023/06/24 14:04:52;;;;;;;4.93;3.90;;;;;;;;;;6237696;23;20386;-96
2023/06/24 14:07:25;;;;;;;3.77;2.90;;;;;;;;;;6239090;23;20405;-94
2023/06/24 14:09:51;;;;;;;3.73;3.30;;;;;;;;;;6238555;23;20381;-95
2023/06/24 14:12:29;;;;;;;3.73;3.37;;;;;;;;;;6262115;22;20382;-93
2023/06/24 14:14:58;;;;;;;3.77;3.37;;;;;;;;;;6261829;22;20422;-94
2023/06/24 14:17:28;;;;;;;3.70;3.30;;;;;;;;;;6237369;23;20430;-94
2023/06/24 14:19:54;;;;;;;4.40;3.20;;;;;;;;;;6238025;23;20477;-96
2023/06/24 14:22:22;;;;;;;3.97;3.40;;;;;;;;;;6230706;23;21005;-93
2023/06/24 14:24:48;;;;;;;3.50;3.20;;;;;;;;;;6230096;23;20382;-96
2023/06/24 14:27:14;;;;;;;3.80;3.10;;;;;;;;;;6231753;23;21138;-95
2023/06/24 14:29:40;;;;;;;5.73;3.80;;;;;;;;;;6230622;23;20433;-95
2023/06/24 14:32:08;;;;;;;3.30;3.00;;;;;;;;;;6202247;23;20379;-94
2023/06/24 14:34:34;;;;;;;5.17;3.27;;;;;;;;;;6175602;23;20390;-94
2023/06/24 14:37:03;;;;;;;4.40;3.43;;;;;;;;;;6201734;23;20406;-92
2023/06/24 14:39:30;;;;;;;4.40;3.20;;;;;;;;;;6199728;23;20406;-96
2023/06/24 14:41:56;;;;;;;4.37;3.63;;;;;;;;;;6174665;23;20383;-93
2023/06/24 14:44:22;;;;;;;3.70;3.20;;;;;;;;;;6174248;23;20398;-95